createdAt,value
2018-08-01T00:00:54.105Z,956.77
2018-08-01T00:01:54.103Z,956.74
2018-08-01T00:02:54.104Z,956.75
2018-08-01T00:03:54.105Z,956.75
2018-08-01T00:04:54.104Z,956.74
2018-08-01T00:05:54.105Z,956.77
2018-08-01T00:06:54.106Z,956.74
2018-08-01T00:07:54.104Z,956.74
2018-08-01T00:08:54.104Z,956.71
2018-08-01T00:09:54.104Z,956.68
2018-08-01T00:10:54.105Z,956.71
2018-08-01T00:11:54.105Z,956.73
2018-08-01T00:12:54.105Z,956.69
2018-08-01T00:13:54.105Z,956.7
2018-08-01T00:14:54.105Z,956.73
2018-08-01T00:15:54.104Z,956.7
2018-08-01T00:16:54.105Z,956.7
2018-08-01T00:17:54.107Z,956.75
2018-08-01T00:18:54.104Z,956.71
2018-08-01T00:19:54.103Z,956.73
2018-08-01T00:20:54.104Z,956.75
2018-08-01T00:21:54.104Z,956.76
2018-08-01T00:22:54.104Z,956.79
2018-08-01T00:23:54.108Z,956.81
2018-08-01T00:24:54.104Z,956.82
2018-08-01T00:25:54.104Z,956.85
2018-08-01T00:26:54.105Z,956.84
2018-08-01T00:27:54.103Z,956.82
2018-08-01T00:28:54.103Z,956.77
2018-08-01T00:29:54.103Z,956.79
2018-08-01T00:30:54.104Z,956.77
2018-08-01T00:31:54.106Z,956.78
2018-08-01T00:32:54.103Z,956.75
2018-08-01T00:33:54.102Z,956.75
2018-08-01T00:34:54.103Z,956.74
2018-08-01T00:35:54.102Z,956.76
2018-08-01T00:36:54.102Z,956.77
2018-08-01T00:37:54.103Z,956.78
2018-08-01T00:38:54.103Z,956.76
2018-08-01T00:39:54.102Z,956.78
2018-08-01T00:40:54.102Z,956.78
2018-08-01T00:41:54.101Z,956.75
2018-08-01T00:42:54.101Z,956.77
2018-08-01T00:43:54.108Z,956.77
2018-08-01T00:44:54.103Z,956.76
2018-08-01T00:45:54.099Z,956.76
2018-08-01T00:46:54.100Z,956.74
2018-08-01T00:47:54.099Z,956.73
2018-08-01T00:48:54.098Z,956.74
2018-08-01T00:49:54.099Z,956.73
2018-08-01T00:50:54.098Z,956.73
2018-08-01T00:51:54.098Z,956.71
2018-08-01T00:52:54.098Z,956.74
2018-08-01T00:53:54.097Z,956.74
2018-08-01T00:54:54.098Z,956.74
2018-08-01T00:55:54.097Z,956.82
2018-08-01T00:56:54.097Z,956.83
2018-08-01T00:57:54.096Z,956.82
2018-08-01T00:58:54.097Z,956.84
2018-08-01T00:59:54.094Z,956.85
2018-08-01T01:00:54.096Z,956.82
2018-08-01T01:01:54.095Z,956.89
2018-08-01T01:02:54.093Z,956.86
2018-08-01T01:03:54.093Z,956.88
2018-08-01T01:04:54.096Z,956.87
2018-08-01T01:05:54.095Z,956.88
2018-08-01T01:06:54.091Z,956.86
2018-08-01T01:07:54.092Z,956.85
2018-08-01T01:08:54.091Z,956.85
2018-08-01T01:09:54.090Z,956.86
2018-08-01T01:10:54.090Z,956.86
2018-08-01T01:11:54.090Z,956.84
2018-08-01T01:12:54.090Z,956.83
2018-08-01T01:13:54.089Z,956.86
2018-08-01T01:14:54.088Z,956.86
2018-08-01T01:15:54.089Z,956.87
2018-08-01T01:16:54.088Z,956.85
2018-08-01T01:17:54.085Z,956.84
2018-08-01T01:18:54.086Z,956.86
2018-08-01T01:19:54.085Z,956.87
2018-08-01T01:20:54.083Z,956.85
2018-08-01T01:21:54.083Z,956.85
2018-08-01T01:22:54.082Z,956.85
2018-08-01T01:23:54.084Z,956.79
2018-08-01T01:24:54.082Z,956.79
2018-08-01T01:25:54.082Z,956.71
2018-08-01T01:26:54.081Z,956.72
2018-08-01T01:27:54.082Z,956.68
2018-08-01T01:28:54.079Z,956.68
2018-08-01T01:29:54.085Z,956.67
2018-08-01T01:30:54.079Z,956.67
2018-08-01T01:31:54.078Z,956.63
2018-08-01T01:32:54.128Z,956.64
2018-08-01T01:33:54.077Z,956.61
2018-08-01T01:34:54.075Z,956.6
2018-08-01T01:35:54.076Z,956.59
2018-08-01T01:36:54.073Z,956.59
2018-08-01T01:37:54.073Z,956.59
2018-08-01T01:38:54.072Z,956.58
2018-08-01T01:39:54.072Z,956.59
2018-08-01T01:40:54.071Z,956.59
2018-08-01T01:41:54.070Z,956.59
2018-08-01T01:42:54.069Z,956.57
2018-08-01T01:43:54.068Z,956.57
2018-08-01T01:44:54.068Z,956.56
2018-08-01T01:45:54.067Z,956.54
2018-08-01T01:46:54.066Z,956.57
2018-08-01T01:47:54.110Z,956.6
2018-08-01T01:48:54.063Z,956.57
2018-08-01T01:49:54.065Z,956.55
2018-08-01T01:50:54.061Z,956.56
2018-08-01T01:51:54.062Z,956.59
2018-08-01T01:52:54.065Z,956.59
2018-08-01T01:53:54.060Z,956.57
2018-08-01T01:54:54.060Z,956.58
2018-08-01T01:55:54.059Z,956.57
2018-08-01T01:56:54.057Z,956.55
2018-08-01T01:57:54.057Z,956.59
2018-08-01T01:58:54.056Z,956.55
2018-08-01T01:59:54.055Z,956.55
2018-08-01T02:00:54.055Z,956.53
2018-08-01T02:01:54.054Z,956.51
2018-08-01T02:02:54.052Z,956.52
2018-08-01T02:03:54.052Z,956.48
2018-08-01T02:04:54.051Z,956.49
2018-08-01T02:05:54.050Z,956.46
2018-08-01T02:06:54.050Z,956.46
2018-08-01T02:07:54.049Z,956.46
2018-08-01T02:08:54.048Z,956.47
2018-08-01T02:09:54.050Z,956.45
2018-08-01T02:10:54.045Z,956.45
2018-08-01T02:11:54.046Z,956.44
2018-08-01T02:12:54.045Z,956.46
2018-08-01T02:13:54.044Z,956.47
2018-08-01T02:14:54.044Z,956.44
2018-08-01T02:15:54.044Z,956.47
2018-08-01T02:16:54.042Z,956.43
2018-08-01T02:17:54.041Z,956.45
2018-08-01T02:18:54.040Z,956.44
2018-08-01T02:19:54.052Z,956.42
2018-08-01T02:20:54.038Z,956.41
2018-08-01T02:21:54.036Z,956.4
2018-08-01T02:22:54.035Z,956.4
2018-08-01T02:23:54.035Z,956.43
2018-08-01T02:24:54.034Z,956.39
2018-08-01T02:25:54.033Z,956.36
2018-08-01T02:26:54.032Z,956.38
2018-08-01T02:27:54.030Z,956.39
2018-08-01T02:28:54.029Z,956.41
2018-08-01T02:29:54.030Z,956.44
2018-08-01T02:30:54.028Z,956.43
2018-08-01T02:31:54.031Z,956.41
2018-08-01T02:32:54.026Z,956.44
2018-08-01T02:33:54.025Z,956.45
2018-08-01T02:34:54.024Z,956.47
2018-08-01T02:35:54.023Z,956.49
2018-08-01T02:36:54.022Z,956.64
2018-08-01T02:37:54.021Z,956.86
2018-08-01T02:38:54.018Z,956.85
2018-08-01T02:39:54.018Z,956.93
2018-08-01T02:40:54.018Z,956.92
2018-08-01T02:41:54.016Z,956.91
2018-08-01T02:42:54.015Z,956.9
2018-08-01T02:43:54.026Z,956.97
2018-08-01T02:44:54.014Z,957.02
2018-08-01T02:45:54.011Z,957.04
2018-08-01T02:46:54.011Z,957.03
2018-08-01T02:47:54.009Z,957.06
2018-08-01T02:48:54.007Z,957.11
2018-08-01T02:49:54.004Z,957.13
2018-08-01T02:50:54.005Z,957.1
2018-08-01T02:51:54.005Z,957.04
2018-08-01T02:52:54.002Z,957.14
2018-08-01T02:53:54.004Z,957.25
2018-08-01T02:54:53.998Z,957.26
2018-08-01T02:55:53.998Z,957.31
2018-08-01T02:56:53.997Z,957.34
2018-08-01T02:57:53.997Z,957.3
2018-08-01T02:58:53.994Z,957.36
2018-08-01T02:59:53.992Z,957.36
2018-08-01T03:00:53.991Z,957.4
2018-08-01T03:01:53.997Z,957.43
2018-08-01T03:02:53.989Z,957.4
2018-08-01T03:03:53.988Z,957.4
2018-08-01T03:04:53.986Z,957.4
2018-08-01T03:05:53.984Z,957.43
2018-08-01T03:06:53.982Z,957.42
2018-08-01T03:07:53.981Z,957.44
2018-08-01T03:08:53.984Z,957.44
2018-08-01T03:09:53.979Z,957.44
2018-08-01T03:10:53.976Z,957.38
2018-08-01T03:11:53.976Z,957.42
2018-08-01T03:12:53.974Z,957.42
2018-08-01T03:13:53.972Z,957.4
2018-08-01T03:14:53.970Z,957.4
2018-08-01T03:15:53.970Z,957.42
2018-08-01T03:16:53.970Z,957.41
2018-08-01T03:17:53.967Z,957.43
2018-08-01T03:18:53.965Z,957.44
2018-08-01T03:19:53.964Z,957.47
2018-08-01T03:20:53.966Z,957.47
2018-08-01T03:21:53.960Z,957.48
2018-08-01T03:22:53.960Z,957.49
2018-08-01T03:23:53.957Z,957.51
2018-08-01T03:24:53.957Z,957.5
2018-08-01T03:25:53.954Z,957.53
2018-08-01T03:26:53.952Z,957.55
2018-08-01T03:27:53.952Z,957.54
2018-08-01T03:28:53.948Z,957.51
2018-08-01T03:29:53.947Z,957.5
2018-08-01T03:30:53.946Z,957.52
2018-08-01T03:31:53.944Z,957.55
2018-08-01T03:32:53.942Z,957.56
2018-08-01T03:33:53.941Z,957.58
2018-08-01T03:34:53.939Z,957.59
2018-08-01T03:35:53.937Z,957.56
2018-08-01T03:36:53.936Z,957.55
2018-08-01T03:37:53.934Z,957.63
2018-08-01T03:38:53.931Z,957.65
2018-08-01T03:39:53.934Z,957.61
2018-08-01T03:40:53.928Z,957.62
2018-08-01T03:41:53.927Z,957.59
2018-08-01T03:42:53.926Z,957.62
2018-08-01T03:43:53.923Z,957.65
2018-08-01T03:44:53.921Z,957.66
2018-08-01T03:45:53.920Z,957.68
2018-08-01T03:46:53.919Z,957.68
2018-08-01T03:47:53.917Z,957.66
2018-08-01T03:48:53.916Z,957.72
2018-08-01T03:49:53.915Z,957.75
2018-08-01T03:50:53.912Z,957.73
2018-08-01T03:51:53.913Z,957.75
2018-08-01T03:52:53.962Z,957.77
2018-08-01T03:53:53.907Z,957.82
2018-08-01T03:54:53.905Z,957.81
2018-08-01T03:55:53.903Z,957.78
2018-08-01T03:56:53.900Z,957.84
2018-08-01T03:57:53.899Z,957.88
2018-08-01T03:58:53.897Z,957.9
2018-08-01T03:59:53.895Z,957.92
2018-08-01T04:00:53.893Z,958
2018-08-01T04:01:53.891Z,958.03
2018-08-01T04:02:53.890Z,958.05
2018-08-01T04:03:53.888Z,958.08
2018-08-01T04:04:53.886Z,958.12
2018-08-01T04:05:53.886Z,958.13
2018-08-01T04:06:53.881Z,958.08
2018-08-01T04:07:53.885Z,958.09
2018-08-01T04:08:53.877Z,958.06
2018-08-01T04:09:53.875Z,958.07
2018-08-01T04:10:53.874Z,958.06
2018-08-01T04:11:53.873Z,958.01
2018-08-01T04:12:53.870Z,958.05
2018-08-01T04:13:53.867Z,958.02
2018-08-01T04:14:53.869Z,958.04
2018-08-01T04:15:53.865Z,958.01
2018-08-01T04:16:53.862Z,958.01
2018-08-01T04:17:53.860Z,958.02
2018-08-01T04:18:53.859Z,958.06
2018-08-01T04:19:53.856Z,958.07
2018-08-01T04:20:53.854Z,958.07
2018-08-01T04:21:53.852Z,958.11
2018-08-01T04:22:53.852Z,958.14
2018-08-01T04:23:53.848Z,958.12
2018-08-01T04:24:53.850Z,958.12
2018-08-01T04:25:53.844Z,958.12
2018-08-01T04:26:53.849Z,958.14
2018-08-01T04:27:53.839Z,958.17
2018-08-01T04:28:53.840Z,958.14
2018-08-01T04:29:53.837Z,958.16
2018-08-01T04:30:53.833Z,958.17
2018-08-01T04:31:53.834Z,958.16
2018-08-01T04:32:53.832Z,958.16
2018-08-01T04:33:53.829Z,958.13
2018-08-01T04:34:53.827Z,958.12
2018-08-01T04:35:53.824Z,958.11
2018-08-01T04:36:53.823Z,958.14
2018-08-01T04:37:53.827Z,958.11
2018-08-01T04:38:53.820Z,958.11
2018-08-01T04:39:53.818Z,958.13
2018-08-01T04:40:53.815Z,958.15
2018-08-01T04:41:53.812Z,958.16
2018-08-01T04:42:53.813Z,958.16
2018-08-01T04:43:53.810Z,958.17
2018-08-01T04:44:53.808Z,958.22
2018-08-01T04:45:53.804Z,958.21
2018-08-01T04:46:53.805Z,958.23
2018-08-01T04:47:53.802Z,958.28
2018-08-01T04:48:53.801Z,958.33
2018-08-01T04:49:53.798Z,958.32
2018-08-01T04:50:53.797Z,958.35
2018-08-01T04:51:53.795Z,958.35
2018-08-01T04:52:53.793Z,958.36
2018-08-01T04:53:53.791Z,958.37
2018-08-01T04:54:53.791Z,958.39
2018-08-01T04:55:53.788Z,958.38
2018-08-01T04:56:53.786Z,958.38
2018-08-01T04:57:53.785Z,958.38
2018-08-01T04:58:53.783Z,958.35
2018-08-01T04:59:53.780Z,958.35
2018-08-01T05:00:53.779Z,958.31
2018-08-01T05:01:53.781Z,958.31
2018-08-01T05:02:53.783Z,958.31
2018-08-01T05:03:53.774Z,958.31
2018-08-01T05:04:53.773Z,958.27
2018-08-01T05:05:53.771Z,958.28
2018-08-01T05:06:53.771Z,958.29
2018-08-01T05:07:53.767Z,958.34
2018-08-01T05:08:53.768Z,958.32
2018-08-01T05:09:53.766Z,958.34
2018-08-01T05:10:53.765Z,958.34
2018-08-01T05:11:53.763Z,958.35
2018-08-01T05:12:53.761Z,958.32
2018-08-01T05:13:53.760Z,958.37
2018-08-01T05:14:53.798Z,958.32
2018-08-01T05:15:53.757Z,958.3
2018-08-01T05:16:53.756Z,958.29
2018-08-01T05:17:53.756Z,958.28
2018-08-01T05:18:53.754Z,958.29
2018-08-01T05:19:53.756Z,958.29
2018-08-01T05:20:53.751Z,958.29
2018-08-01T05:21:53.752Z,958.34
2018-08-01T05:22:53.750Z,958.36
2018-08-01T05:23:53.770Z,958.34
2018-08-01T05:24:53.750Z,958.36
2018-08-01T05:25:53.747Z,958.39
2018-08-01T05:26:53.746Z,958.38
2018-08-01T05:27:53.746Z,958.36
2018-08-01T05:28:53.745Z,958.38
2018-08-01T05:29:53.743Z,958.38
2018-08-01T05:30:53.743Z,958.41
2018-08-01T05:31:53.742Z,958.41
2018-08-01T05:32:53.740Z,958.42
2018-08-01T05:33:53.739Z,958.48
2018-08-01T05:34:53.738Z,958.49
2018-08-01T05:35:53.739Z,958.52
2018-08-01T05:36:53.736Z,958.5
2018-08-01T05:37:53.736Z,958.54
2018-08-01T05:38:53.734Z,958.51
2018-08-01T05:39:53.735Z,958.59
2018-08-01T05:40:53.733Z,958.59
2018-08-01T05:41:53.733Z,958.56
2018-08-01T05:42:53.735Z,958.55
2018-08-01T05:43:53.730Z,958.58
2018-08-01T05:44:53.729Z,958.59
2018-08-01T05:45:53.727Z,958.59
2018-08-01T05:46:53.728Z,958.59
2018-08-01T05:47:53.726Z,958.64
2018-08-01T05:48:53.727Z,958.63
2018-08-01T05:49:53.725Z,958.62
2018-08-01T05:50:53.777Z,958.66
2018-08-01T05:51:53.722Z,958.66
2018-08-01T05:52:53.722Z,958.64
2018-08-01T05:53:53.721Z,958.62
2018-08-01T05:54:53.723Z,958.65
2018-08-01T05:55:53.719Z,958.67
2018-08-01T05:56:53.730Z,958.64
2018-08-01T05:57:53.720Z,958.63
2018-08-01T05:58:53.716Z,958.63
2018-08-01T05:59:53.715Z,958.66
2018-08-01T06:00:53.714Z,958.57
2018-08-01T06:01:53.713Z,958.62
2018-08-01T06:02:53.712Z,958.62
2018-08-01T06:03:53.716Z,958.64
2018-08-01T06:04:53.711Z,958.65
2018-08-01T06:05:53.709Z,958.67
2018-08-01T06:06:53.709Z,958.7
2018-08-01T06:07:53.708Z,958.69
2018-08-01T06:08:53.708Z,958.69
2018-08-01T06:09:53.706Z,958.69
2018-08-01T06:10:53.705Z,958.71
2018-08-01T06:11:53.711Z,958.7
2018-08-01T06:12:53.705Z,958.67
2018-08-01T06:13:53.703Z,958.72
2018-08-01T06:14:53.702Z,958.71
2018-08-01T06:15:53.702Z,958.66
2018-08-01T06:16:53.701Z,958.64
2018-08-01T06:17:53.700Z,958.67
2018-08-01T06:18:53.700Z,958.71
2018-08-01T06:19:53.699Z,958.69
2018-08-01T06:20:53.699Z,958.71
2018-08-01T06:21:53.697Z,958.7
2018-08-01T06:22:53.699Z,958.71
2018-08-01T06:23:53.697Z,958.72
2018-08-01T06:24:53.704Z,958.73
2018-08-01T06:25:53.696Z,958.69
2018-08-01T06:26:53.695Z,958.7
2018-08-01T06:27:53.764Z,958.73
2018-08-01T06:28:53.697Z,958.71
2018-08-01T06:29:53.704Z,958.71
2018-08-01T06:30:53.693Z,958.69
2018-08-01T06:31:53.692Z,958.7
2018-08-01T06:32:53.692Z,958.73
2018-08-01T06:33:53.691Z,958.76
2018-08-01T06:34:53.691Z,958.77
2018-08-01T06:35:53.691Z,958.78
2018-08-01T06:36:53.690Z,958.79
2018-08-01T06:37:53.694Z,958.82
2018-08-01T06:38:53.689Z,958.79
2018-08-01T06:39:53.690Z,958.81
2018-08-01T06:40:53.689Z,958.82
2018-08-01T06:41:53.691Z,958.85
2018-08-01T06:42:53.688Z,958.84
2018-08-01T06:43:53.688Z,958.84
2018-08-01T06:44:53.688Z,958.85
2018-08-01T06:45:53.688Z,958.85
2018-08-01T06:46:53.739Z,958.93
2018-08-01T06:47:53.687Z,958.92
2018-08-01T06:48:53.687Z,958.96
2018-08-01T06:49:53.690Z,958.94
2018-08-01T06:50:53.689Z,958.92
2018-08-01T06:51:53.686Z,958.95
2018-08-01T06:52:53.686Z,958.9
2018-08-01T06:53:53.736Z,958.85
2018-08-01T06:54:53.687Z,958.87
2018-08-01T06:55:53.687Z,958.79
2018-08-01T06:56:53.688Z,958.83
2018-08-01T06:57:53.689Z,958.83
2018-08-01T06:58:53.690Z,958.91
2018-08-01T06:59:53.692Z,958.95
2018-08-01T07:00:53.691Z,958.96
2018-08-01T07:01:53.694Z,958.91
2018-08-01T07:02:53.696Z,958.9
2018-08-01T07:03:53.699Z,958.92
2018-08-01T07:04:53.700Z,958.9
2018-08-01T07:05:53.702Z,958.88
2018-08-01T07:06:53.814Z,958.88
2018-08-01T07:07:53.708Z,958.89
2018-08-01T07:08:53.710Z,958.87
2018-08-01T07:09:53.714Z,958.93
2018-08-01T07:10:53.718Z,958.88
2018-08-01T07:11:53.721Z,958.89
2018-08-01T07:12:53.726Z,958.86
2018-08-01T07:13:53.729Z,958.87
2018-08-01T07:14:53.795Z,958.88
2018-08-01T07:15:53.737Z,958.84
2018-08-01T07:16:53.746Z,958.83
2018-08-01T07:17:53.748Z,958.9
2018-08-01T07:18:53.750Z,958.92
2018-08-01T07:19:53.756Z,958.91
2018-08-01T07:20:53.761Z,958.91
2018-08-01T07:21:53.766Z,958.95
2018-08-01T07:22:53.771Z,958.91
2018-08-01T07:23:53.777Z,958.92
2018-08-01T07:24:53.782Z,958.94
2018-08-01T07:25:53.791Z,958.89
2018-08-01T07:26:53.793Z,958.89
2018-08-01T07:27:53.849Z,958.86
2018-08-01T07:28:53.803Z,958.89
2018-08-01T07:29:53.810Z,958.94
2018-08-01T07:30:53.817Z,958.92
2018-08-01T07:31:53.823Z,958.98
2018-08-01T07:32:53.829Z,958.94
2018-08-01T07:33:53.835Z,959.03
2018-08-01T07:34:53.846Z,959.04
2018-08-01T07:35:53.849Z,959.07
2018-08-01T07:36:53.857Z,959.15
2018-08-01T07:37:53.867Z,959.1
2018-08-01T07:38:53.870Z,959.09
2018-08-01T07:39:53.876Z,959.11
2018-08-01T07:40:53.882Z,959.13
2018-08-01T07:41:53.890Z,959.19
2018-08-01T07:42:53.976Z,959.14
2018-08-01T07:43:53.905Z,959.21
2018-08-01T07:44:53.912Z,959.19
2018-08-01T07:45:53.919Z,959.25
2018-08-01T07:46:53.928Z,959.3
2018-08-01T07:47:53.934Z,959.29
2018-08-01T07:48:53.941Z,959.43
2018-08-01T07:49:53.969Z,959.46
2018-08-01T07:50:53.956Z,959.51
2018-08-01T07:51:53.961Z,959.55
2018-08-01T07:52:53.970Z,959.38
2018-08-01T07:53:53.990Z,959.1
2018-08-01T07:54:53.990Z,958.92
2018-08-01T07:55:53.994Z,958.87
2018-08-01T07:56:53.999Z,958.85
2018-08-01T07:57:54.008Z,958.85
2018-08-01T07:58:54.014Z,958.87
2018-08-01T07:59:54.021Z,958.89
2018-08-01T08:00:54.027Z,958.88
2018-08-01T08:01:54.035Z,958.91
2018-08-01T08:02:54.040Z,958.94
2018-08-01T08:03:54.047Z,958.9
2018-08-01T08:04:54.054Z,958.94
2018-08-01T08:05:54.064Z,958.91
2018-08-01T08:06:54.065Z,958.91
2018-08-01T08:07:54.073Z,958.89
2018-08-01T08:08:54.081Z,958.89
2018-08-01T08:09:54.086Z,958.86
2018-08-01T08:10:54.090Z,958.9
2018-08-01T08:11:54.098Z,958.85
2018-08-01T08:12:54.103Z,958.89
2018-08-01T08:13:54.108Z,958.91
2018-08-01T08:14:54.114Z,958.91
2018-08-01T08:15:54.119Z,958.9
2018-08-01T08:16:54.125Z,958.94
2018-08-01T08:17:54.130Z,958.93
2018-08-01T08:18:54.136Z,958.93
2018-08-01T08:19:54.141Z,958.94
2018-08-01T08:20:54.147Z,958.93
2018-08-01T08:21:54.151Z,958.93
2018-08-01T08:22:54.156Z,958.94
2018-08-01T08:23:54.161Z,958.94
2018-08-01T08:24:54.166Z,958.96
2018-08-01T08:25:54.171Z,958.96
2018-08-01T08:26:54.179Z,958.94
2018-08-01T08:27:54.181Z,958.99
2018-08-01T08:28:54.185Z,959
2018-08-01T08:29:54.191Z,959
2018-08-01T08:30:54.196Z,958.99
2018-08-01T08:31:54.201Z,959.03
2018-08-01T08:32:54.205Z,958.97
2018-08-01T08:33:54.211Z,958.95
2018-08-01T08:34:54.216Z,958.92
2018-08-01T08:35:54.219Z,959.01
2018-08-01T08:36:54.254Z,958.96
2018-08-01T08:37:54.227Z,958.93
2018-08-01T08:38:54.237Z,958.93
2018-08-01T08:39:54.237Z,958.88
2018-08-01T08:40:54.241Z,958.93
2018-08-01T08:41:54.246Z,958.9
2018-08-01T08:42:54.250Z,958.9
2018-08-01T08:43:54.255Z,958.88
2018-08-01T08:44:54.260Z,958.94
2018-08-01T08:45:54.264Z,958.92
2018-08-01T08:46:54.268Z,958.91
2018-08-01T08:47:54.272Z,958.91
2018-08-01T08:48:54.405Z,958.95
2018-08-01T08:49:54.286Z,958.94
2018-08-01T08:50:54.285Z,958.98
2018-08-01T08:51:54.290Z,958.94
2018-08-01T08:52:54.294Z,958.91
2018-08-01T08:53:54.371Z,958.93
2018-08-01T08:54:54.313Z,958.94
2018-08-01T08:55:54.305Z,958.93
2018-08-01T08:56:54.311Z,958.9
2018-08-01T08:57:54.313Z,958.9
2018-08-01T08:58:54.320Z,958.91
2018-08-01T08:59:54.323Z,958.93
2018-08-01T09:00:54.425Z,958.88
2018-08-01T09:01:54.334Z,958.93
2018-08-01T09:02:54.337Z,958.93
2018-08-01T09:03:54.341Z,958.96
2018-08-01T09:04:54.345Z,958.95
2018-08-01T09:05:54.349Z,958.94
2018-08-01T09:06:54.356Z,958.97
2018-08-01T09:07:54.359Z,958.96
2018-08-01T09:08:54.363Z,958.96
2018-08-01T09:09:54.368Z,958.94
2018-08-01T09:10:54.373Z,958.95
2018-08-01T09:11:54.378Z,958.94
2018-08-01T09:12:54.381Z,958.95
2018-08-01T09:13:54.386Z,958.99
2018-08-01T09:14:54.393Z,959.01
2018-08-01T09:15:54.400Z,959.01
2018-08-01T09:16:54.401Z,958.97
2018-08-01T09:17:54.407Z,958.99
2018-08-01T09:18:54.412Z,959.01
2018-08-01T09:19:54.416Z,958.97
2018-08-01T09:20:54.420Z,959.02
2018-08-01T09:21:54.428Z,958.98
2018-08-01T09:22:54.432Z,958.99
2018-08-01T09:23:54.435Z,958.97
2018-08-01T09:24:54.522Z,958.98
2018-08-01T09:25:54.445Z,958.97
2018-08-01T09:26:54.448Z,958.96
2018-08-01T09:27:54.455Z,958.95
2018-08-01T09:28:54.459Z,958.99
2018-08-01T09:29:54.465Z,958.98
2018-08-01T09:30:54.468Z,958.95
2018-08-01T09:31:54.474Z,958.96
2018-08-01T09:32:54.478Z,958.97
2018-08-01T09:33:54.488Z,959
2018-08-01T09:34:54.489Z,959.02
2018-08-01T09:35:54.493Z,958.98
2018-08-01T09:36:54.498Z,958.98
2018-08-01T09:37:54.501Z,959.01
2018-08-01T09:38:54.507Z,959
2018-08-01T09:39:54.512Z,959
2018-08-01T09:40:54.535Z,958.97
2018-08-01T09:41:54.522Z,958.96
2018-08-01T09:42:54.527Z,958.96
2018-08-01T09:43:54.531Z,958.99
2018-08-01T09:44:54.539Z,958.96
2018-08-01T09:45:54.541Z,959
2018-08-01T09:46:54.548Z,958.99
2018-08-01T09:47:54.553Z,959
2018-08-01T09:48:54.557Z,959.06
2018-08-01T09:49:54.563Z,959
2018-08-01T09:50:54.569Z,958.99
2018-08-01T09:51:54.574Z,959.02
2018-08-01T09:52:54.706Z,959.01
2018-08-01T09:53:54.686Z,958.97
2018-08-01T09:54:55.219Z,958.99
2018-08-01T09:55:55.236Z,959.02
2018-08-01T09:56:54.612Z,959.07
2018-08-01T09:57:54.610Z,959.04
2018-08-01T09:58:54.611Z,959.01
2018-08-01T09:59:54.615Z,959.04
2018-08-01T10:00:54.621Z,959.02
2018-08-01T10:01:54.650Z,959.07
2018-08-01T10:02:54.632Z,959.06
2018-08-01T10:03:54.637Z,959.1
2018-08-01T10:04:54.641Z,959.09
2018-08-01T10:05:54.652Z,959.12
2018-08-01T10:06:54.655Z,959.09
2018-08-01T10:07:54.661Z,959.1
2018-08-01T10:08:54.664Z,959.09
2018-08-01T10:09:54.669Z,959.04
2018-08-01T10:10:54.676Z,959.05
2018-08-01T10:11:54.681Z,959.09
2018-08-01T10:12:54.686Z,959.13
2018-08-01T10:13:54.694Z,959.1
2018-08-01T10:14:54.697Z,959.1
2018-08-01T10:15:54.702Z,959.17
2018-08-01T10:16:54.708Z,959.11
2018-08-01T10:17:54.712Z,959.11
2018-08-01T10:18:54.719Z,959.14
2018-08-01T10:19:54.728Z,959.11
2018-08-01T10:20:54.748Z,959.14
2018-08-01T10:21:54.736Z,959.19
2018-08-01T10:22:54.742Z,959.13
2018-08-01T10:23:54.748Z,959.14
2018-08-01T10:24:54.753Z,959.17
2018-08-01T10:25:54.759Z,959.17
2018-08-01T10:26:54.829Z,959.17
2018-08-01T10:27:54.771Z,959.15
2018-08-01T10:28:54.775Z,959.18
2018-08-01T10:29:54.781Z,959.23
2018-08-01T10:30:54.788Z,959.22
2018-08-01T10:31:54.796Z,959.19
2018-08-01T10:32:54.800Z,959.2
2018-08-01T10:33:54.806Z,959.19
2018-08-01T10:34:54.813Z,959.18
2018-08-01T10:35:54.822Z,959.18
2018-08-01T10:36:54.821Z,959.2
2018-08-01T10:37:54.829Z,959.15
2018-08-01T10:38:54.835Z,959.15
2018-08-01T10:39:54.841Z,959.18
2018-08-01T10:40:54.846Z,959.13
2018-08-01T10:41:54.855Z,959.11
2018-08-01T10:42:54.932Z,959.15
2018-08-01T10:43:54.864Z,959.19
2018-08-01T10:44:54.871Z,959.15
2018-08-01T10:45:54.894Z,959.16
2018-08-01T10:46:54.883Z,959.18
2018-08-01T10:47:54.887Z,959.14
2018-08-01T10:48:54.894Z,959.11
2018-08-01T10:49:54.901Z,959.12
2018-08-01T10:50:54.989Z,959.09
2018-08-01T10:51:54.912Z,959.07
2018-08-01T10:52:54.918Z,959.07
2018-08-01T10:53:55.013Z,959.04
2018-08-01T10:54:54.932Z,959.05
2018-08-01T10:55:54.936Z,959.11
2018-08-01T10:56:54.942Z,959.06
2018-08-01T10:57:54.953Z,959.05
2018-08-01T10:58:54.954Z,958.97
2018-08-01T10:59:54.961Z,959.08
2018-08-01T11:00:54.969Z,959.08
2018-08-01T11:01:54.972Z,959.04
2018-08-01T11:02:54.979Z,959.09
2018-08-01T11:03:54.984Z,959.09
2018-08-01T11:04:55.041Z,959.13
2018-08-01T11:05:54.996Z,959.12
2018-08-01T11:06:55.002Z,959.1
2018-08-01T11:07:55.008Z,959.08
2018-08-01T11:08:55.015Z,959.07
2018-08-01T11:09:55.020Z,959.03
2018-08-01T11:10:55.027Z,959.05
2018-08-01T11:11:55.035Z,959.07
2018-08-01T11:12:55.038Z,959.07
2018-08-01T11:13:55.044Z,959.1
2018-08-01T11:14:55.050Z,959.04
2018-08-01T11:15:55.060Z,959.06
2018-08-01T11:16:55.065Z,959.05
2018-08-01T11:17:55.105Z,959.06
2018-08-01T11:18:55.073Z,959.04
2018-08-01T11:19:55.079Z,959.03
2018-08-01T11:20:55.083Z,958.97
2018-08-01T11:21:55.145Z,959.06
2018-08-01T11:22:55.097Z,959.04
2018-08-01T11:23:55.102Z,959.03
2018-08-01T11:24:55.108Z,959.04
2018-08-01T11:25:55.114Z,959.02
2018-08-01T11:26:55.119Z,959.02
2018-08-01T11:27:55.126Z,959.05
2018-08-01T11:28:55.157Z,959.04
2018-08-01T11:29:55.137Z,958.97
2018-08-01T11:30:55.143Z,959
2018-08-01T11:31:55.150Z,959.02
2018-08-01T11:32:55.157Z,958.97
2018-08-01T11:33:55.163Z,958.99
2018-08-01T11:34:55.168Z,959.03
2018-08-01T11:35:55.174Z,958.96
2018-08-01T11:36:55.183Z,958.96
2018-08-01T11:37:55.194Z,958.96
2018-08-01T11:38:55.195Z,958.91
2018-08-01T11:39:55.198Z,958.96
2018-08-01T11:40:55.205Z,958.92
2018-08-01T11:41:55.215Z,958.9
2018-08-01T11:42:55.218Z,958.95
2018-08-01T11:43:55.224Z,958.92
2018-08-01T11:44:55.230Z,958.96
2018-08-01T11:45:55.234Z,958.94
2018-08-01T11:46:55.247Z,958.86
2018-08-01T11:47:55.248Z,958.96
2018-08-01T11:48:55.255Z,958.95
2018-08-01T11:49:55.262Z,958.97
2018-08-01T11:50:55.266Z,958.93
2018-08-01T11:51:55.273Z,958.95
2018-08-01T11:52:55.279Z,958.91
2018-08-01T11:53:55.283Z,958.92
2018-08-01T11:54:55.304Z,958.95
2018-08-01T11:55:55.301Z,958.89
2018-08-01T11:56:55.326Z,958.93
2018-08-01T11:57:55.310Z,958.92
2018-08-01T11:58:55.316Z,958.94
2018-08-01T11:59:55.323Z,958.91
2018-08-01T12:00:55.328Z,958.9
2018-08-01T12:01:55.428Z,958.96
2018-08-01T12:02:55.341Z,958.93
2018-08-01T12:03:55.346Z,958.93
2018-08-01T12:04:55.353Z,958.99
2018-08-01T12:05:55.360Z,958.93
2018-08-01T12:06:55.365Z,958.94
2018-08-01T12:07:55.373Z,958.97
2018-08-01T12:08:55.377Z,958.93
2018-08-01T12:09:55.383Z,958.96
2018-08-01T12:10:55.389Z,958.94
2018-08-01T12:11:55.403Z,958.95
2018-08-01T12:12:55.402Z,959
2018-08-01T12:13:55.408Z,958.94
2018-08-01T12:14:55.477Z,958.98
2018-08-01T12:15:55.420Z,958.99
2018-08-01T12:16:55.426Z,959
2018-08-01T12:17:55.433Z,959.03
2018-08-01T12:18:55.438Z,959.06
2018-08-01T12:19:55.443Z,959.07
2018-08-01T12:20:55.451Z,959.09
2018-08-01T12:21:55.457Z,959.1
2018-08-01T12:22:55.462Z,959.11
2018-08-01T12:23:55.468Z,959.09
2018-08-01T12:24:55.473Z,959.08
2018-08-01T12:25:55.480Z,959.05
2018-08-01T12:26:55.486Z,959
2018-08-01T12:27:55.492Z,959.03
2018-08-01T12:28:55.498Z,959.01
2018-08-01T12:29:55.504Z,959.01
2018-08-01T12:30:55.511Z,959.06
2018-08-01T12:31:55.517Z,959.06